DRZA

Details ICAO DRZA (AJY)
Name MANU DAYAK
Region Niger
Timezone Africa/Niamey (UTC+1.0)
Plans Departing 8
Arriving 16
Stats Elevation 1,657 ft / 505 m (AMSL)
Location 16.965965° 8.000155°
Runways 1
Magnetic Variation 0.467° E
Sunrise 2018-05-26 04:55:39 UTC / 2018-05-26 05:55:39 Local
Sunset 2018-05-26 17:57:18 UTC / 2018-05-26 18:57:18 Local
Advertisement - Login to hide

Runways

ID Width Length Bearing (true) Bearing (mag) Surface Threshold Offset Overrun Length
07 98 ft / 30 m 9,857 ft / 3,005 m 68.06° 67.59° Asphalt 0 ft / 0 m 328 ft / 100 m
25 98 ft / 30 m 9,857 ft / 3,005 m 248.07° 247.60° Asphalt 0 ft / 0 m 328 ft / 100 m

Map

Weather


0- 5 10 15 20 25 30 35+ Temperature / ° C

Clouds and Precipitation
Forecast for 2018-05-26 00:00 UTC. Updated 6 minutes ago

Ground ~20,000 ft ~40,000 ft Winds

METAR

Not found

TAF

TAF DRZA 251700Z 2518/2618 14015KT 6000 NSC PROB40 TEMPO 2612/2616 10025KT 3500 BLDU

Frequencies

Tower 118.10 MHz AGADES TWR
Warning: Do not use this data for real-world aviation or navigation. No guarantee of current accuracy is given.